sensor_id;sensor_type;location;lat;lon;timestamp;pressure;altitude;pressure_sealevel;temperature;humidity
21276;BME280;36472;52.170;20.884;2023-02-23T00:02:20;100966.41;;;1.79;51.15
21276;BME280;36472;52.170;20.884;2023-02-23T00:04:50;100965.59;;;1.77;51.38
21276;BME280;36472;52.170;20.884;2023-02-23T00:07:19;100962.22;;;1.74;52.04
21276;BME280;36472;52.170;20.884;2023-02-23T00:09:48;100960.59;;;1.68;52.20
21276;BME280;36472;52.170;20.884;2023-02-23T00:12:19;100955.38;;;1.71;52.58
21276;BME280;36472;52.170;20.884;2023-02-23T00:14:50;100953.66;;;1.70;52.49
21276;BME280;36472;52.170;20.884;2023-02-23T00:17:19;100951.06;;;1.70;52.31
21276;BME280;36472;52.170;20.884;2023-02-23T00:19:52;100950.25;;;1.66;52.64
21276;BME280;36472;52.170;20.884;2023-02-23T00:22:24;100955.50;;;1.63;52.86
21276;BME280;36472;52.170;20.884;2023-02-23T00:24:53;100949.53;;;1.60;52.99
21276;BME280;36472;52.170;20.884;2023-02-23T00:27:24;100941.69;;;1.63;53.01
21276;BME280;36472;52.170;20.884;2023-02-23T00:29:53;100946.81;;;1.66;53.52
21276;BME280;36472;52.170;20.884;2023-02-23T00:32:22;100942.53;;;1.63;53.41
21276;BME280;36472;52.170;20.884;2023-02-23T02:08:21;100891.00;;;1.04;57.41
21276;BME280;36472;52.170;20.884;2023-02-23T02:10:52;100885.75;;;1.07;57.97
21276;BME280;36472;52.170;20.884;2023-02-23T02:13:29;100884.94;;;1.04;58.07
21276;BME280;36472;52.170;20.884;2023-02-23T02:16:27;100895.19;;;1.11;58.02
21276;BME280;36472;52.170;20.884;2023-02-23T02:23:02;100888.34;;;1.06;58.10
21276;BME280;36472;52.170;20.884;2023-02-23T02:26:00;100886.59;;;1.09;58.38
21276;BME280;36472;52.170;20.884;2023-02-23T02:32:36;100890.94;;;1.06;58.53
21276;BME280;36472;52.170;20.884;2023-02-23T02:35:56;100890.19;;;1.01;59.29
21276;BME280;36472;52.170;20.884;2023-02-23T02:38:46;100885.88;;;1.01;59.08
21276;BME280;36472;52.170;20.884;2023-02-23T02:41:31;100890.19;;;1.01;59.34
21276;BME280;36472;52.170;20.884;2023-02-23T02:44:14;100885.81;;;1.04;59.21
21276;BME280;36472;52.170;20.884;2023-02-23T02:46:53;100885.81;;;1.04;59.54
21276;BME280;36472;52.170;20.884;2023-02-23T02:49:30;100889.28;;;1.03;59.48
21276;BME280;36472;52.170;20.884;2023-02-23T02:52:08;100878.94;;;1.03;59.45
21276;BME280;36472;52.170;20.884;2023-02-23T02:54:47;100879.75;;;1.05;59.65
21276;BME280;36472;52.170;20.884;2023-02-23T02:57:25;100880.66;;;1.04;59.93
21276;BME280;36472;52.170;20.884;2023-02-23T02:59:57;100887.50;;;1.05;60.13
21276;BME280;36472;52.170;20.884;2023-02-23T03:02:44;100884.06;;;1.06;60.24
21276;BME280;36472;52.170;20.884;2023-02-23T03:05:40;100877.97;;;1.07;59.92
21276;BME280;36472;52.170;20.884;2023-02-23T03:08:39;100880.69;;;1.01;60.88
21276;BME280;36472;52.170;20.884;2023-02-23T03:11:38;100878.19;;;0.97;61.35
21276;BME280;36472;52.170;20.884;2023-02-23T03:14:34;100878.09;;;1.01;61.57
21276;BME280;36472;52.170;20.884;2023-02-23T03:17:37;100878.09;;;1.01;61.79
21276;BME280;36472;52.170;20.884;2023-02-23T03:20:39;100882.31;;;1.07;61.35
21276;BME280;36472;52.170;20.884;2023-02-23T03:23:39;100886.53;;;1.11;61.58
21276;BME280;36472;52.170;20.884;2023-02-23T03:26:39;100880.53;;;1.09;62.21
21276;BME280;36472;52.170;20.884;2023-02-23T03:29:36;100883.06;;;1.12;62.33
21276;BME280;36472;52.170;20.884;2023-02-23T03:32:32;100888.16;;;1.18;62.70
21276;BME280;36472;52.170;20.884;2023-02-23T03:35:26;100882.00;;;1.24;62.42
21276;BME280;36472;52.170;20.884;2023-02-23T03:38:19;100887.19;;;1.24;62.88
21276;BME280;36472;52.170;20.884;2023-02-23T03:41:10;100882.78;;;1.27;62.74
21276;BME280;36472;52.170;20.884;2023-02-23T03:44:04;100882.72;;;1.32;63.07
21276;BME280;36472;52.170;20.884;2023-02-23T03:46:56;100886.16;;;1.33;63.37
21276;BME280;36472;52.170;20.884;2023-02-23T03:49:48;100888.66;;;1.37;63.44
21276;BME280;36472;52.170;20.884;2023-02-23T03:52:42;100886.00;;;1.40;63.69
21276;BME280;36472;52.170;20.884;2023-02-23T03:55:33;100886.00;;;1.40;63.51
21276;BME280;36472;52.170;20.884;2023-02-23T03:58:29;100882.50;;;1.43;63.88
21276;BME280;36472;52.170;20.884;2023-02-23T04:01:20;100888.38;;;1.51;64.13
21276;BME280;36472;52.170;20.884;2023-02-23T04:04:10;100887.44;;;1.55;64.01
21276;BME280;36472;52.170;20.884;2023-02-23T04:07:01;100884.81;;;1.57;64.19
21276;BME280;36472;52.170;20.884;2023-02-23T04:09:48;100885.63;;;1.59;64.19
21276;BME280;36472;52.170;20.884;2023-02-23T04:12:45;100888.19;;;1.60;64.50
21276;BME280;36472;52.170;20.884;2023-02-23T04:15:38;100889.03;;;1.62;65.06
21276;BME280;36472;52.170;20.884;2023-02-23T04:18:14;100887.25;;;1.64;64.66
21276;BME280;36472;52.170;20.884;2023-02-23T04:20:44;100877.72;;;1.66;65.27
21276;BME280;36472;52.170;20.884;2023-02-23T04:23:13;100888.03;;;1.70;65.17
21276;BME280;36472;52.170;20.884;2023-02-23T04:25:42;100879.25;;;1.75;65.41
21276;BME280;36472;52.170;20.884;2023-02-23T04:28:11;100884.50;;;1.72;65.62
21276;BME280;36472;52.170;20.884;2023-02-23T04:30:40;100890.50;;;1.74;65.53
21276;BME280;36472;52.170;20.884;2023-02-23T04:33:11;100877.53;;;1.74;65.67
21276;BME280;36472;52.170;20.884;2023-02-23T04:35:40;100880.94;;;1.78;66.23
21276;BME280;36472;52.170;20.884;2023-02-23T04:38:09;100892.09;;;1.81;66.12
21276;BME280;36472;52.170;20.884;2023-02-23T04:40:38;100871.38;;;1.80;66.00
21276;BME280;36472;52.170;20.884;2023-02-23T04:43:10;100881.75;;;1.80;66.45
21276;BME280;36472;52.170;20.884;2023-02-23T04:45:40;100872.41;;;1.73;67.11
21276;BME280;36472;52.170;20.884;2023-02-23T04:48:10;100873.22;;;1.75;66.97
21276;BME280;36472;52.170;20.884;2023-02-23T04:50:39;100875.78;;;1.76;67.28
21276;BME280;36472;52.170;20.884;2023-02-23T04:53:09;100871.53;;;1.72;67.43
21276;BME280;36472;52.170;20.884;2023-02-23T04:55:37;100868.19;;;1.67;67.72
21276;BME280;36472;52.170;20.884;2023-02-23T04:58:09;100870.94;;;1.59;68.55
21276;BME280;36472;52.170;20.884;2023-02-23T05:00:40;100878.69;;;1.61;68.60
21276;BME280;36472;52.170;20.884;2023-02-23T05:03:10;100870.16;;;1.56;69.08
21276;BME280;36472;52.170;20.884;2023-02-23T05:05:39;100865.97;;;1.48;69.63
21276;BME280;36472;52.170;20.884;2023-02-23T05:08:09;100878.03;;;1.49;69.69
21276;BME280;36472;52.170;20.884;2023-02-23T05:10:38;100869.53;;;1.44;69.77
21276;BME280;36472;52.170;20.884;2023-02-23T05:13:07;100867.75;;;1.46;70.20
21276;BME280;36472;52.170;20.884;2023-02-23T05:15:36;100877.22;;;1.47;70.35
21276;BME280;36472;52.170;20.884;2023-02-23T05:18:05;100871.34;;;1.39;70.04
21276;BME280;36472;52.170;20.884;2023-02-23T05:20:36;100872.94;;;1.46;70.25
21276;BME280;36472;52.170;20.884;2023-02-23T05:23:05;100869.38;;;1.52;70.40
21276;BME280;36472;52.170;20.884;2023-02-23T05:25:34;100863.38;;;1.48;70.39
21276;BME280;36472;52.170;20.884;2023-02-23T05:28:05;100865.16;;;1.46;70.53
21276;BME280;36472;52.170;20.884;2023-02-23T05:30:34;100868.53;;;1.50;70.60
21276;BME280;36472;52.170;20.884;2023-02-23T05:33:04;100859.00;;;1.52;70.64
21276;BME280;36472;52.170;20.884;2023-02-23T05:35:33;100858.13;;;1.52;70.64
21276;BME280;36472;52.170;20.884;2023-02-23T05:38:03;100862.50;;;1.49;71.13
21276;BME280;36472;52.170;20.884;2023-02-23T05:40:32;100862.69;;;1.42;71.30
21276;BME280;36472;52.170;20.884;2023-02-23T05:43:01;100866.88;;;1.47;71.09
21276;BME280;36472;52.170;20.884;2023-02-23T05:45:30;100861.78;;;1.43;71.35
21276;BME280;36472;52.170;20.884;2023-02-23T05:48:00;100860.88;;;1.45;71.11
21276;BME280;36472;52.170;20.884;2023-02-23T05:50:28;100865.94;;;1.50;71.29
21276;BME280;36472;52.170;20.884;2023-02-23T05:52:57;100866.78;;;1.52;71.27
21276;BME280;36472;52.170;20.884;2023-02-23T05:55:28;100865.94;;;1.50;71.47
21276;BME280;36472;52.170;20.884;2023-02-23T05:57:57;100865.00;;;1.54;71.28
21276;BME280;36472;52.170;20.884;2023-02-23T06:00:25;100872.66;;;1.59;70.62
21276;BME280;36472;52.170;20.884;2023-02-23T06:02:55;100871.03;;;1.55;71.23
21276;BME280;36472;52.170;20.884;2023-02-23T06:05:24;100877.03;;;1.57;70.65
21276;BME280;36472;52.170;20.884;2023-02-23T06:07:53;100865.75;;;1.61;70.96
21276;BME280;36472;52.170;20.884;2023-02-23T06:10:22;100874.41;;;1.58;70.58
21276;BME280;36472;52.170;20.884;2023-02-23T06:12:52;100868.44;;;1.55;70.71
21276;BME280;36472;52.170;20.884;2023-02-23T06:15:21;100871.81;;;1.58;70.81
21276;BME280;36472;52.170;20.884;2023-02-23T06:17:50;100877.75;;;1.63;70.85
21276;BME280;36472;52.170;20.884;2023-02-23T06:20:20;100872.75;;;1.56;70.46
21276;BME280;36472;52.170;20.884;2023-02-23T06:22:49;100879.53;;;1.61;70.23
21276;BME280;36472;52.170;20.884;2023-02-23T06:25:18;100876.13;;;1.59;70.80
21276;BME280;36472;52.170;20.884;2023-02-23T06:27:47;100875.03;;;1.71;70.18
21276;BME280;36472;52.170;20.884;2023-02-23T06:30:18;100870.84;;;1.64;70.14
21276;BME280;36472;52.170;20.884;2023-02-23T06:32:47;100874.13;;;1.72;70.45
21276;BME280;36472;52.170;20.884;2023-02-23T06:35:19;100873.28;;;1.72;70.28
21276;BME280;36472;52.170;20.884;2023-02-23T06:37:49;100880.28;;;1.66;69.99
21276;BME280;36472;52.170;20.884;2023-02-23T06:40:18;100880.31;;;1.65;70.14
21276;BME280;36472;52.170;20.884;2023-02-23T06:42:47;100882.06;;;1.64;70.09
21276;BME280;36472;52.170;20.884;2023-02-23T06:45:17;100880.88;;;1.79;70.05
21276;BME280;36472;52.170;20.884;2023-02-23T06:47:47;100883.41;;;1.82;70.27
21276;BME280;36472;52.170;20.884;2023-02-23T06:50:17;100882.38;;;1.90;69.76
21276;BME280;36472;52.170;20.884;2023-02-23T06:52:46;100873.75;;;1.91;69.23
21276;BME280;36472;52.170;20.884;2023-02-23T06:55:16;100889.97;;;1.99;69.04
21276;BME280;36472;52.170;20.884;2023-02-23T06:57:48;100876.91;;;2.05;68.99
21276;BME280;36472;52.170;20.884;2023-02-23T07:00:20;100882.84;;;2.10;68.80
21276;BME280;36472;52.170;20.884;2023-02-23T07:02:50;100892.34;;;2.08;68.77
21276;BME280;36472;52.170;20.884;2023-02-23T07:05:19;100887.00;;;2.17;68.71
21276;BME280;36472;52.170;20.884;2023-02-23T07:07:48;100885.88;;;2.28;68.36
21276;BME280;36472;52.170;20.884;2023-02-23T07:10:17;100882.63;;;2.19;67.88
21276;BME280;36472;52.170;20.884;2023-02-23T07:12:46;100887.47;;;2.33;68.05
21276;BME280;36472;52.170;20.884;2023-02-23T07:15:15;100878.94;;;2.28;68.04
21276;BME280;36472;52.170;20.884;2023-02-23T07:17:48;100883.75;;;2.45;67.56
21276;BME280;36472;52.170;20.884;2023-02-23T07:20:19;100882.78;;;2.49;66.72
21276;BME280;36472;52.170;20.884;2023-02-23T07:22:48;100876.81;;;2.46;66.90
21276;BME280;36472;52.170;20.884;2023-02-23T07:25:17;100874.41;;;2.38;66.50
21276;BME280;36472;52.170;20.884;2023-02-23T07:27:46;100875.34;;;2.34;67.39
21276;BME280;36472;52.170;20.884;2023-02-23T07:30:15;100871.81;;;2.38;66.99
21276;BME280;36472;52.170;20.884;2023-02-23T07:32:47;100865.94;;;2.30;67.06
21276;BME280;36472;52.170;20.884;2023-02-23T07:35:16;100873.69;;;2.31;67.51
21276;BME280;36472;52.170;20.884;2023-02-23T07:37:45;100867.78;;;2.62;67.02
21276;BME280;36472;52.170;20.884;2023-02-23T07:40:15;100867.78;;;2.62;66.44
21276;BME280;36472;52.170;20.884;2023-02-23T07:42:44;100862.81;;;2.87;65.50
21276;BME280;36472;52.170;20.884;2023-02-23T07:45:14;100854.63;;;3.03;65.08
21276;BME280;36472;52.170;20.884;2023-02-23T07:47:44;100866.53;;;3.10;64.29
21276;BME280;36472;52.170;20.884;2023-02-23T07:50:14;100862.88;;;3.17;64.11
21276;BME280;36472;52.170;20.884;2023-02-23T07:52:44;100859.06;;;3.30;64.18
21276;BME280;36472;52.170;20.884;2023-02-23T07:55:12;100851.91;;;3.06;63.53
21276;BME280;36472;52.170;20.884;2023-02-23T07:57:42;100847.72;;;3.02;64.07
21276;BME280;36472;52.170;20.884;2023-02-23T08:00:12;100844.78;;;3.14;64.70
21276;BME280;36472;52.170;20.884;2023-02-23T08:02:42;100841.94;;;3.23;64.33
21276;BME280;36472;52.170;20.884;2023-02-23T08:05:13;100844.63;;;3.20;63.48
21276;BME280;36472;52.170;20.884;2023-02-23T08:07:42;100839.16;;;3.29;63.90
21276;BME280;36472;52.170;20.884;2023-02-23T08:10:12;100838.41;;;3.26;63.44
21276;BME280;36472;52.170;20.884;2023-02-23T08:12:41;100827.88;;;3.30;63.64
21276;BME280;36472;52.170;20.884;2023-02-23T08:15:10;100833.28;;;3.23;63.44
21276;BME280;36472;52.170;20.884;2023-02-23T08:17:41;100828.66;;;3.34;63.31
21276;BME280;36472;52.170;20.884;2023-02-23T08:20:10;100821.25;;;3.50;63.17
21276;BME280;36472;52.170;20.884;2023-02-23T08:22:41;100828.56;;;3.67;62.52
21276;BME280;36472;52.170;20.884;2023-02-23T08:25:16;100820.69;;;3.98;62.22
21276;BME280;36472;52.170;20.884;2023-02-23T08:27:47;100815.16;;;4.09;61.09
21276;BME280;36472;52.170;20.884;2023-02-23T08:30:20;100816.72;;;4.41;60.79
21276;BME280;36472;52.170;20.884;2023-02-23T08:32:50;100819.31;;;4.41;59.58
21276;BME280;36472;52.170;20.884;2023-02-23T08:35:19;100820.25;;;4.65;59.49
21276;BME280;36472;52.170;20.884;2023-02-23T08:37:49;100818.19;;;4.75;59.11
21276;BME280;36472;52.170;20.884;2023-02-23T08:40:18;100817.56;;;4.94;58.77
21276;BME280;36472;52.170;20.884;2023-02-23T08:42:47;100814.34;;;4.85;58.28
21276;BME280;36472;52.170;20.884;2023-02-23T08:45:19;100805.88;;;4.54;58.78
21276;BME280;36472;52.170;20.884;2023-02-23T08:47:48;100806.56;;;4.59;59.66
21276;BME280;36472;52.170;20.884;2023-02-23T08:50:17;100803.69;;;4.68;58.88
21276;BME280;36472;52.170;20.884;2023-02-23T08:52:46;100811.13;;;4.79;59.34
21276;BME280;36472;52.170;20.884;2023-02-23T08:55:16;100803.19;;;4.57;59.96
21276;BME280;36472;52.170;20.884;2023-02-23T08:57:47;100800.22;;;4.67;59.67
21276;BME280;36472;52.170;20.884;2023-02-23T09:00:17;100800.53;;;4.83;59.85
21276;BME280;36472;52.170;20.884;2023-02-23T09:02:47;100799.38;;;4.92;59.32
21276;BME280;36472;52.170;20.884;2023-02-23T09:05:17;100793.94;;;4.98;59.09
21276;BME280;36472;52.170;20.884;2023-02-23T09:07:47;100792.31;;;5.19;58.96
21276;BME280;36472;52.170;20.884;2023-02-23T09:10:21;100796.38;;;5.27;58.55
21276;BME280;36472;52.170;20.884;2023-02-23T09:12:51;100790.56;;;5.43;58.13
21276;BME280;36472;52.170;20.884;2023-02-23T09:15:20;100788.81;;;5.66;57.22
21276;BME280;36472;52.170;20.884;2023-02-23T09:17:49;100791.13;;;5.52;56.76
21276;BME280;36472;52.170;20.884;2023-02-23T09:20:20;100783.72;;;5.85;56.71
21276;BME280;36472;52.170;20.884;2023-02-23T09:22:53;100776.66;;;6.11;55.80
21276;BME280;36472;52.170;20.884;2023-02-23T09:25:24;100784.75;;;6.05;55.79
21276;BME280;36472;52.170;20.884;2023-02-23T09:27:55;100773.50;;;6.03;55.95
21276;BME280;36472;52.170;20.884;2023-02-23T09:30:26;100778.66;;;6.04;55.79
21276;BME280;36472;52.170;20.884;2023-02-23T09:32:55;100775.31;;;6.43;54.79
21276;BME280;36472;52.170;20.884;2023-02-23T09:35:24;100769.78;;;6.51;54.86
21276;BME280;36472;52.170;20.884;2023-02-23T09:37:54;100760.91;;;6.34;54.18
21276;BME280;36472;52.170;20.884;2023-02-23T09:40:29;100763.03;;;6.25;54.83
21276;BME280;36472;52.170;20.884;2023-02-23T09:43:09;100762.22;;;6.45;54.65
21276;BME280;36472;52.170;20.884;2023-02-23T09:45:42;100759.84;;;6.59;54.52
21276;BME280;36472;52.170;20.884;2023-02-23T09:48:18;100758.16;;;6.58;54.06
21276;BME280;36472;52.170;20.884;2023-02-23T09:50:51;100753.78;;;6.79;53.69
21276;BME280;36472;52.170;20.884;2023-02-23T09:53:37;100746.84;;;6.99;52.85
21276;BME280;36472;52.170;20.884;2023-02-23T09:56:17;100757.69;;;7.08;53.31
21276;BME280;36472;52.170;20.884;2023-02-23T09:58:49;100755.56;;;6.98;52.81
21276;BME280;36472;52.170;20.884;2023-02-23T10:01:42;100747.13;;;7.11;52.78
21276;BME280;36472;52.170;20.884;2023-02-23T10:04:22;100751.13;;;7.19;52.27
21276;BME280;36472;52.170;20.884;2023-02-23T10:06:59;100742.03;;;7.65;51.69
21276;BME280;36472;52.170;20.884;2023-02-23T10:09:52;100747.97;;;7.50;51.81
21276;BME280;36472;52.170;20.884;2023-02-23T10:12:39;100737.38;;;8.07;50.16
21276;BME280;36472;52.170;20.884;2023-02-23T10:15:26;100733.25;;;8.55;49.47
21276;BME280;36472;52.170;20.884;2023-02-23T10:18:16;100731.09;;;9.13;47.71
21276;BME280;36472;52.170;20.884;2023-02-23T10:20:59;100727.19;;;8.71;48.59
21276;BME280;36472;52.170;20.884;2023-02-23T10:23:36;100719.72;;;8.80;48.10
21276;BME280;36472;52.170;20.884;2023-02-23T10:26:15;100719.41;;;8.69;47.78
21276;BME280;36472;52.170;20.884;2023-02-23T10:28:47;100710.06;;;9.14;47.57
21276;BME280;36472;52.170;20.884;2023-02-23T10:31:29;100706.50;;;9.31;47.10
21276;BME280;36472;52.170;20.884;2023-02-23T10:34:07;100711.72;;;9.79;46.42
21276;BME280;36472;52.170;20.884;2023-02-23T10:36:47;100704.63;;;9.96;45.28
21276;BME280;36472;52.170;20.884;2023-02-23T10:39:19;100694.13;;;9.96;45.72
21276;BME280;36472;52.170;20.884;2023-02-23T10:41:48;100709.19;;;10.08;45.50
21276;BME280;36472;52.170;20.884;2023-02-23T10:44:21;100697.34;;;9.70;46.01
21276;BME280;36472;52.170;20.884;2023-02-23T10:46:56;100693.38;;;9.93;45.69
21276;BME280;36472;52.170;20.884;2023-02-23T10:49:38;100677.31;;;10.14;45.68
21276;BME280;36472;52.170;20.884;2023-02-23T10:52:10;100675.31;;;10.03;45.64
21276;BME280;36472;52.170;20.884;2023-02-23T10:54:44;100675.06;;;10.53;44.68
21276;BME280;36472;52.170;20.884;2023-02-23T10:57:26;100670.63;;;10.53;44.16
21276;BME280;36472;52.170;20.884;2023-02-23T11:00:28;100661.94;;;10.08;44.77
21276;BME280;36472;52.170;20.884;2023-02-23T11:03:02;100661.84;;;10.09;45.10
21276;BME280;36472;52.170;20.884;2023-02-23T11:05:48;100652.34;;;9.46;46.38
21276;BME280;36472;52.170;20.884;2023-02-23T11:08:30;100650.56;;;9.47;45.84
21276;BME280;36472;52.170;20.884;2023-02-23T11:11:04;100660.13;;;10.08;45.48
21276;BME280;36472;52.170;20.884;2023-02-23T11:13:40;100644.94;;;10.44;44.86
21276;BME280;36472;52.170;20.884;2023-02-23T11:16:14;100638.44;;;10.64;43.99
21276;BME280;36472;52.170;20.884;2023-02-23T11:18:52;100636.56;;;10.80;43.96
21276;BME280;36472;52.170;20.884;2023-02-23T11:21:26;100636.66;;;10.50;44.50
21276;BME280;36472;52.170;20.884;2023-02-23T11:24:12;100628.28;;;10.15;45.06
21276;BME280;36472;52.170;20.884;2023-02-23T11:26:45;100627.63;;;10.25;45.00
21276;BME280;36472;52.170;20.884;2023-02-23T11:29:23;100625.25;;;10.21;44.53
21276;BME280;36472;52.170;20.884;2023-02-23T11:31:57;100615.16;;;10.43;44.18
21276;BME280;36472;52.170;20.884;2023-02-23T11:34:31;100623.81;;;10.45;44.24
21276;BME280;36472;52.170;20.884;2023-02-23T11:37:05;100608.22;;;10.57;44.33
21276;BME280;36472;52.170;20.884;2023-02-23T11:39:35;100601.47;;;10.53;44.62
21276;BME280;36472;52.170;20.884;2023-02-23T11:42:17;100599.03;;;10.50;44.39
21276;BME280;36472;52.170;20.884;2023-02-23T11:45:00;100596.03;;;10.41;44.28
21276;BME280;36472;52.170;20.884;2023-02-23T11:47:32;100586.91;;;11.03;43.71
21276;BME280;36472;52.170;20.884;2023-02-23T11:50:04;100587.19;;;10.71;43.20
21276;BME280;36472;52.170;20.884;2023-02-23T11:52:34;100586.28;;;10.58;43.89
21276;BME280;36472;52.170;20.884;2023-02-23T11:55:06;100590.56;;;10.30;44.72
21276;BME280;36472;52.170;20.884;2023-02-23T11:57:36;100586.13;;;10.02;45.38
21276;BME280;36472;52.170;20.884;2023-02-23T12:00:12;100567.34;;;9.34;45.99
21276;BME280;36472;52.170;20.884;2023-02-23T12:02:49;100580.88;;;9.57;46.26
21276;BME280;36472;52.170;20.884;2023-02-23T12:05:24;100564.28;;;10.16;45.76
21276;BME280;36472;52.170;20.884;2023-02-23T12:08:04;100562.50;;;10.16;44.97
21276;BME280;36472;52.170;20.884;2023-02-23T12:10:41;100561.84;;;10.13;45.18
21276;BME280;36472;52.170;20.884;2023-02-23T12:13:24;100560.06;;;9.84;45.49
21276;BME280;36472;52.170;20.884;2023-02-23T12:15:59;100548.13;;;9.79;45.91
21276;BME280;36472;52.170;20.884;2023-02-23T12:18:45;100544.41;;;9.22;46.45
21276;BME280;36472;52.170;20.884;2023-02-23T12:21:29;100547.84;;;9.39;46.75
21276;BME280;36472;52.170;20.884;2023-02-23T12:24:16;100540.50;;;9.60;46.00
21276;BME280;36472;52.170;20.884;2023-02-23T12:26:54;100533.84;;;9.54;45.91
21276;BME280;36472;52.170;20.884;2023-02-23T12:29:32;100531.28;;;10.26;44.78
21276;BME280;36472;52.170;20.884;2023-02-23T12:32:11;100518.81;;;10.85;44.04
21276;BME280;36472;52.170;20.884;2023-02-23T12:34:48;100516.06;;;10.60;44.14
21276;BME280;36472;52.170;20.884;2023-02-23T12:37:36;100527.41;;;9.88;45.15
21276;BME280;36472;52.170;20.884;2023-02-23T12:40:15;100514.53;;;9.55;46.35
21276;BME280;36472;52.170;20.884;2023-02-23T12:42:56;100508.63;;;8.91;46.99
21276;BME280;36472;52.170;20.884;2023-02-23T12:45:35;100505.41;;;8.86;46.86
21276;BME280;36472;52.170;20.884;2023-02-23T12:48:17;100498.81;;;8.47;47.93
21276;BME280;36472;52.170;20.884;2023-02-23T12:50:57;100493.03;;;8.24;49.05
21276;BME280;36472;52.170;20.884;2023-02-23T12:53:36;100499.47;;;8.18;49.72
21276;BME280;36472;52.170;20.884;2023-02-23T12:56:34;100492.69;;;8.14;49.97
21276;BME280;36472;52.170;20.884;2023-02-23T12:59:35;100494.25;;;8.01;49.66
21276;BME280;36472;52.170;20.884;2023-02-23T13:02:17;100487.78;;;8.08;49.81
21276;BME280;36472;52.170;20.884;2023-02-23T13:05:16;100478.59;;;8.17;50.21
21276;BME280;36472;52.170;20.884;2023-02-23T13:08:02;100474.53;;;8.11;50.87
21276;BME280;36472;52.170;20.884;2023-02-23T13:10:49;100478.75;;;7.47;50.62
21276;BME280;36472;52.170;20.884;2023-02-23T13:13:32;100483.88;;;7.66;51.09
21276;BME280;36472;52.170;20.884;2023-02-23T13:16:13;100470.22;;;7.77;50.09
21276;BME280;36472;52.170;20.884;2023-02-23T13:18:49;100465.38;;;7.86;50.33
21276;BME280;36472;52.170;20.884;2023-02-23T13:21:28;100464.78;;;7.81;50.27
21276;BME280;36472;52.170;20.884;2023-02-23T13:24:04;100472.28;;;7.54;51.52
21276;BME280;36472;52.170;20.884;2023-02-23T13:26:46;100457.03;;;7.62;51.03
21276;BME280;36472;52.170;20.884;2023-02-23T13:29:31;100453.66;;;7.43;51.21
21276;BME280;36472;52.170;20.884;2023-02-23T13:32:07;100453.13;;;7.54;50.71
21276;BME280;36472;52.170;20.884;2023-02-23T13:34:43;100445.38;;;7.52;51.16
21276;BME280;36472;52.170;20.884;2023-02-23T13:37:17;100447.34;;;7.64;51.49
21276;BME280;36472;52.170;20.884;2023-02-23T13:40:00;100436.31;;;7.75;51.06
21276;BME280;36472;52.170;20.884;2023-02-23T13:42:47;100426.94;;;7.71;51.05
21276;BME280;36472;52.170;20.884;2023-02-23T13:45:37;100435.63;;;7.72;50.95
21276;BME280;36472;52.170;20.884;2023-02-23T13:48:29;100429.78;;;7.66;51.47
21276;BME280;36472;52.170;20.884;2023-02-23T13:51:17;100425.06;;;7.73;51.00
21276;BME280;36472;52.170;20.884;2023-02-23T13:54:03;100418.66;;;7.63;51.78
21276;BME280;36472;52.170;20.884;2023-02-23T13:56:43;100415.34;;;7.59;51.62
21276;BME280;36472;52.170;20.884;2023-02-23T13:59:18;100404.66;;;7.64;51.60
21276;BME280;36472;52.170;20.884;2023-02-23T14:01:50;100409.97;;;7.62;51.88
21276;BME280;36472;52.170;20.884;2023-02-23T14:04:23;100405.19;;;7.71;51.77
21276;BME280;36472;52.170;20.884;2023-02-23T14:06:59;100395.72;;;7.84;52.09
21276;BME280;36472;52.170;20.884;2023-02-23T14:09:33;100404.38;;;7.68;52.55
21276;BME280;36472;52.170;20.884;2023-02-23T14:12:15;100399.75;;;7.74;52.76
21276;BME280;36472;52.170;20.884;2023-02-23T14:14:46;100404.22;;;7.72;52.53
21276;BME280;36472;52.170;20.884;2023-02-23T14:17:55;100398.56;;;7.63;52.97
21276;BME280;36472;52.170;20.884;2023-02-23T14:20:51;100389.06;;;7.78;51.35
21276;BME280;36472;52.170;20.884;2023-02-23T14:23:34;100380.75;;;7.70;51.23
21276;BME280;36472;52.170;20.884;2023-02-23T14:26:17;100377.56;;;7.65;51.42
21276;BME280;36472;52.170;20.884;2023-02-23T14:29:23;100378.94;;;7.39;51.46
21276;BME280;36472;52.170;20.884;2023-02-23T14:32:18;100367.16;;;7.63;51.63
21276;BME280;36472;52.170;20.884;2023-02-23T14:34:56;100371.91;;;7.57;51.95
21276;BME280;36472;52.170;20.884;2023-02-23T14:37:30;100355.19;;;7.59;51.10
21276;BME280;36472;52.170;20.884;2023-02-23T14:40:09;100357.31;;;7.68;51.24
21276;BME280;36472;52.170;20.884;2023-02-23T14:42:40;100366.69;;;7.73;51.10
21276;BME280;36472;52.170;20.884;2023-02-23T14:45:21;100360.19;;;7.64;51.33
21276;BME280;36472;52.170;20.884;2023-02-23T14:47:57;100362.88;;;7.62;51.47
21276;BME280;36472;52.170;20.884;2023-02-23T14:50:33;100362.44;;;7.54;51.95
21276;BME280;36472;52.170;20.884;2023-02-23T14:53:07;100352.81;;;7.55;52.27
21276;BME280;36472;52.170;20.884;2023-02-23T14:55:41;100346.81;;;7.53;52.19
21276;BME280;36472;52.170;20.884;2023-02-23T14:58:22;100351.28;;;7.35;52.72
21276;BME280;36472;52.170;20.884;2023-02-23T15:00:51;100350.25;;;7.37;52.98
21276;BME280;36472;52.170;20.884;2023-02-23T15:03:20;100337.38;;;7.50;52.94
21276;BME280;36472;52.170;20.884;2023-02-23T15:05:55;100335.19;;;7.09;53.71
21276;BME280;36472;52.170;20.884;2023-02-23T15:08:27;100335.59;;;7.17;53.58
21276;BME280;36472;52.170;20.884;2023-02-23T15:11:02;100335.38;;;7.22;53.88
21276;BME280;36472;52.170;20.884;2023-02-23T15:13:34;100330.91;;;7.24;53.90
21276;BME280;36472;52.170;20.884;2023-02-23T15:16:07;100338.22;;;7.17;53.93
21276;BME280;36472;52.170;20.884;2023-02-23T15:18:40;100332.19;;;7.33;53.97